Flight Track Log - Related Links

Times and Time Zones

All times are in EDT time to prevent confusion due to time zone crossing. See the AAY841 flight status page for this flight to view local times or setup timezone preferences in your user account.

Time Position Orientation Groundspeed Altitude Reporting Facility
EDT Latitude Longitude Course Direction KTS MPH feet Rate Location/Type
Thu 09:09:46 AM 36.5322 -82.3283 175° South 255 293 4,900  Level Atlanta Center
Thu 09:10:46 AM 36.4733 -82.2858 150° Southeast 299 344 8,200 2,550 Climbing Atlanta Center
Thu 09:11:46 AM 36.4044 -82.2872 181° South 288 331 10,000 1,300 Climbing Atlanta Center
Thu 09:12:46 AM 36.3253 -82.2864 180° South 282 325 10,800 1,650 Climbing Atlanta Center
Thu 09:13:46 AM 36.2314 -82.2833 178° South 316 364 13,300 2,550 Climbing Atlanta Center
Thu 09:14:00 AM 35.9456 -82.4264 175° South  Level Estimated
Thu 09:14:46 AM 36.1353 -82.2803 179° South 342 394 15,900  Level Atlanta Center
Thu 09:15:46 AM 36.0372 -82.2797 180° South 347 399 17,800 2,050 Climbing Atlanta Center
Thu 09:16:46 AM 35.9350 -82.2769 179° South 359 413 20,000 2,050 Climbing Atlanta Center
Thu 09:17:46 AM 35.8286 -82.2767 180° South 371 427 21,900 1,800 Climbing Atlanta Center
Thu 09:18:46 AM 35.7222 -82.2739 179° South 382 440 23,600 1,650 Climbing Atlanta Center
Thu 09:19:46 AM 35.5992 -82.2739 180° South 394 453 25,200 964 Climbing Atlanta Center
Thu 09:24:47 AM 34.9879 -82.2986 183° South 438 504 29,400 811 Climbing FlightAware ADS-B (KDZJ)
Thu 09:25:41 AM 34.8763 -82.3054 183° South 433 498 30,000 321 Climbing FlightAware ADS-B (KDZJ)
Thu 09:26:39 AM 34.7591 -82.3122 183° South 432 497 30,000  Level FlightAware ADS-B (KDZJ)
Thu 09:27:12 AM 34.6918 -82.3162 183° South 438 504 30,000 294 Level FlightAware ADS-B (KDZJ)
Thu 09:28:21 AM 34.5514 -82.3244 183° South 432 497 30,500 857 Climbing FlightAware ADS-B (KDZJ)
Thu 09:29:46 AM 34.4044 -82.3344 183° South 438 504 32,200 1,200 Climbing Atlanta Center
Thu 09:30:46 AM 34.2833 -82.3419 183° South 438 504 33,400 1,150 Climbing Atlanta Center
Thu 09:31:46 AM 34.1644 -82.3492 183° South 438 504 34,500 1,150 Climbing Atlanta Center
Thu 09:32:46 AM 34.0372 -82.3567 183° South 443 510 35,700 750 Climbing Atlanta Center
Thu 09:33:46 AM 33.9186 -82.3642 183° South 436 502 36,000 150 Climbing Atlanta Center
Thu 09:34:46 AM 33.8122 -82.3686 182° South 436 502 36,000  Level Atlanta Center
Thu 09:35:46 AM 33.6892 -82.3786 184° South 442 509 36,000  Level Atlanta Center
Thu 09:36:46 AM 33.5722 -82.3858 183° South 428 493 36,000  Level Atlanta Center
Thu 09:37:46 AM 33.4514 -82.3931 183° South 436 502 36,000  Level Atlanta Center
Thu 09:38:46 AM 33.3344 -82.3978 182° South 430 495 36,000  Level Atlanta Center
Thu 09:39:46 AM 33.2011 -82.4053 183° South 430 495 36,000  Level Atlanta Center
Thu 09:40:46 AM 33.0819 -82.4075 181° South 430 495 36,000  Level Atlanta Center
Thu 09:41:46 AM 32.9633 -82.4172 184° South 430 495 36,000  Level Atlanta Center
Thu 09:42:46 AM 32.8422 -82.4269 184° South 430 495 36,000  Level Atlanta Center
Thu 09:43:46 AM 32.7214 -82.4317 182° South 430 495 36,000  Level Atlanta Center
Thu 09:44:46 AM 32.6044 -82.4361 182° South 435 501 36,000  Level Atlanta Center
Thu 09:45:46 AM 32.4856 -82.4431 183° South 435 501 36,000  Level Atlanta Center
Thu 09:47:21 AM 32.3078 -82.4525 183° South 442 509 36,000  Level Jacksonville Center
Thu 09:48:21 AM 32.1867 -82.4606 183° South 442 509 36,000  Level Jacksonville Center
Thu 09:49:21 AM 32.0553 -82.4686 183° South 442 509 36,000  Level Jacksonville Center
Thu 09:50:21 AM 31.9361 -82.4764 183° South 442 509 36,000  Level Jacksonville Center
Thu 09:51:21 AM 31.8150 -82.4817 182° South 437 503 36,000  Level Jacksonville Center
Thu 09:52:21 AM 31.6942 -82.4872 182° South 442 509 36,000  Level Jacksonville Center
Thu 09:53:21 AM 31.5708 -82.4950 183° South 442 509 36,000  Level Jacksonville Center
Thu 09:54:21 AM 31.4497 -82.5006 182° South 442 509 36,000  Level Jacksonville Center
Thu 09:55:21 AM 31.3392 -82.5108 185° South 442 509 36,000  Level Jacksonville Center
Thu 10:00:44 AM 30.6782 -82.5435 183° South 430 495 36,000  Level FlightAware ADS-B
Thu 10:01:51 AM 30.5458 -82.5506 183° South 431 496 36,000 -171 Level FlightAware ADS-B
Thu 10:02:29 AM 30.4674 -82.5453 169° South 443 510 35,700 -874 Descending FlightAware ADS-B
Thu 10:05:17 AM 30.1290 -82.4731 170° South 449 517 33,000 -971 Descending FlightAware ADS-B
Thu 10:05:59 AM 30.0481 -82.4558 170° South 448 516 32,300 -1,037 Descending FlightAware ADS-B
Thu 10:06:38 AM 29.9625 -82.4376 170° South 442 509 31,600 -1,000 Descending FlightAware ADS-B
Thu 10:07:29 AM 29.8643 -82.4170 170° South 441 507 30,800 -923 Descending FlightAware ADS-B
Thu 10:08:09 AM 29.7827 -82.3997 170° South 428 493 30,200 -1,029 Descending FlightAware ADS-B
Thu 10:08:39 AM 29.7243 -82.3874 170° South 425 489 29,600 -1,981 Descending FlightAware ADS-B
Thu 10:09:55 AM 29.5774 -82.3574 174° South 407 468 26,700 -2,131 Descending FlightAware ADS-B
Thu 10:10:26 AM 29.5293 -82.3517 174° South 393 452 25,800 -1,703 Descending FlightAware ADS-B
Thu 10:11:09 AM 29.4435 -82.3413 174° South 383 441 24,600 -1,726 Descending FlightAware ADS-B
Thu 10:11:39 AM 29.3908 -82.3350 174° South 381 438 23,700 -1,846 Descending FlightAware ADS-B
Thu 10:12:14 AM 29.3290 -82.3276 174° South 371 427 22,600 -1,650 Descending FlightAware ADS-B
Thu 10:12:59 AM 29.2538 -82.3186 174° South 371 427 21,500 -1,590 Descending FlightAware ADS-B
Thu 10:14:11 AM 29.1320 -82.3043 175° South 361 415 19,500 -1,727 Descending FlightAware ADS-B
Thu 10:15:18 AM 29.0243 -82.2915 173° South 355 409 17,500 -1,744 Descending FlightAware ADS-B
Thu 10:16:08 AM 28.9419 -82.2816 173° South 322 371 16,100 -1,600 Descending FlightAware ADS-B
Thu 10:17:03 AM 28.8739 -82.2560 174° South 338 389 14,700 -1,545 Descending FlightAware ADS-B
Thu 10:17:49 AM 28.7994 -82.2476 174° South 333 383 13,500 -1,281 Descending FlightAware ADS-B
Thu 10:18:32 AM 28.7372 -82.2422 180° South 328 377 12,800 -1,250 Descending FlightAware ADS-B
Thu 10:19:49 AM 28.6170 -82.2409 179° South 319 367 11,000 -1,008 Descending FlightAware ADS-B
Thu 10:20:31 AM 28.5550 -82.2399 179° South 319 367 10,800 -200 Descending FlightAware ADS-B
Thu 10:20:49 AM 28.5314 -82.2408 193° South 321 369 10,800  Level FlightAware ADS-B
Thu 10:21:00 AM 28.5202 -82.2445 210° Southwest 320 368 10,800 -167 Level FlightAware ADS-B
Thu 10:21:25 AM 28.4896 -82.2785 244° Southwest 317 365 10,700 -706 Descending FlightAware ADS-B
Thu 10:22:25 AM 28.4553 -82.3653 246° West 283 326 9,800 -493 Descending FlightAware ADS-B
Thu 10:23:51 AM 28.4000 -82.4833 246° West 278 320 9,500 -781 Descending Tampa TRACON
Thu 10:24:51 AM 28.3667 -82.5667 246° West 272 313 7,900 -1,650 Descending Tampa TRACON
Thu 10:25:51 AM 28.3333 -82.6500 246° West 268 308 6,200 -1,650 Descending Tampa TRACON
Thu 10:26:51 AM 28.3000 -82.7167 240° Southwest 266 306 4,600 -1,050 Descending Tampa TRACON
Thu 10:27:51 AM 28.2667 -82.8000 246° West 267 307 4,100 -750 Descending Tampa TRACON
Thu 10:28:51 AM 28.2167 -82.8500 221° Southwest 259 298 3,100 -500 Descending Tampa TRACON
Thu 10:29:51 AM 28.1667 -82.9000 221° Southwest 260 299 3,100  Level Tampa TRACON
Thu 10:30:51 AM 28.1000 -82.9000 180° South 250 288 3,100  Level Tampa TRACON
Thu 10:31:51 AM 28.0333 -82.9000 180° South 249 287 3,100  Level Tampa TRACON
Thu 10:32:51 AM 27.9667 -82.9000 180° South 243 280 3,100  Level Tampa TRACON
Thu 10:33:51 AM 27.9000 -82.8833 168° South 192 221 3,100  Level Tampa TRACON
Thu 10:34:51 AM 27.8667 -82.8500 139° Southeast 164 189 3,100 -50 Level Tampa TRACON
Thu 10:35:52 AM 27.8333 -82.8167 139° Southeast 171 197 3,000 -545 Descending Tampa TRACON
Thu 10:36:52 AM 27.8333 -82.7667 90° East 169 194 2,000 -800 Descending Tampa TRACON
Thu 10:37:52 AM 27.8333 -82.7167 90° East 125 144 1,400 -500 Descending Tampa TRACON
Thu 10:38:52 AM 27.8500 -82.6833 61° Northeast 135 155 1,000 -550 Descending Tampa TRACON
Thu 10:39:52 AM 27.9000 -82.6833 360° North 138 159 300 -700 Descending Tampa TRACON
Thu 10:41:00 AM 27.9100 -82.6875 310° West  Level Estimated

Login

Don't have an account? Register now (free) for customized features, flight alerts, and more!